Pagina principale
METAR-TAF:

METAR-TAF

Aeroporti :

Ahvaz, Iran

latitudine: 31-20N, longitudine: 048-40E, altezza: 20 m

Osservazione

Il bollettino è stato emesso 18 minuti fa, alle 19:00 UTC
Vento 8 kt da ovest
Temperature 35°C
Umidità 20%
Pressione 999 hPa
Visibilità 10 km o più
nessuna nube inferiore a 1500 m e nessun cumulonembo

METAR: OIAW 201900Z 28008KT CAVOK 35/09 Q0999

Ora: 23:48 (19:18 UTC)

Previsione

Il bollettino è stato emesso 1 ora e 48 minuti fa, alle 17:30 UTC
Previsione valida dal 20 alle 18 UTC al 21 alle 24 UTC
Vento 8 kt da ovest/nord-ovest
Visibilità: 6000 m
Probabilità 40% :
Temporaneamente
dal 21 alle 00 UTC al 21 alle 06 UTC
Visibilità: 5000 m
polvere diffusa
Temporaneamente
dal 21 alle 08 UTC al 21 alle 14 UTC
Vento 18 kt da ovest/nord-ovest

TAF: OIAW 201730Z 2018/2124 30008KT 6000 NSC PROB40 TEMPO 2100/2106 5000 DU TEMPO 2108/2114 30018KT

Osservazioni e previsioni meteorologiche di più di 4000 aeroporti (messaggi METAR e TAF).

Le stazioni disponibili sono rappresentate dai dischi gialli e rossi sulla carta.

Puntare il mouse per vedere il nome della stazione.

Clicca sopra per visualizzare le osservazioni e previsioni meteorologiche.

Per cambiare la mappa : fare clic sui pulsanti verdi con una croce nera per ingrandire, il pulsante verde con un trattino per diminuire, o sulla freccia verde per le mappe adiacenti.


METAR-TAF: